createdAt,value
2019-03-26T00:02:00.517Z,3.00
2019-03-26T00:04:48.956Z,3.10
2019-03-26T00:07:37.311Z,3.10
2019-03-26T00:10:25.458Z,3.20
2019-03-26T00:13:13.433Z,3.20
2019-03-26T00:16:01.781Z,3.20
2019-03-26T00:18:50.225Z,3.20
2019-03-26T00:21:39.226Z,3.20
2019-03-26T00:24:28.212Z,3.30
2019-03-26T00:27:17.161Z,3.30
2019-03-26T00:30:06.138Z,3.30
2019-03-26T00:32:54.994Z,3.30
2019-03-26T00:35:43.450Z,3.30
2019-03-26T00:38:32.261Z,3.30
2019-03-26T00:41:20.810Z,3.30
2019-03-26T00:44:09.081Z,3.30
2019-03-26T00:46:57.476Z,3.30
2019-03-26T00:49:45.693Z,3.30
2019-03-26T00:52:34.348Z,3.30
2019-03-26T00:55:23.308Z,3.30
2019-03-26T00:58:11.581Z,3.30
2019-03-26T01:00:59.803Z,3.40
2019-03-26T01:03:48.601Z,3.30
2019-03-26T01:06:37.706Z,3.30
2019-03-26T01:09:26.506Z,3.30
2019-03-26T01:12:15.351Z,3.30
2019-03-26T01:15:04.483Z,3.30
2019-03-26T01:17:52.964Z,3.30
2019-03-26T01:20:41.309Z,3.30
2019-03-26T01:23:29.484Z,3.30
2019-03-26T01:26:18.097Z,3.30
2019-03-26T01:29:06.455Z,3.30
2019-03-26T01:31:54.412Z,3.30
2019-03-26T01:34:46.258Z,3.30
2019-03-26T01:37:32.385Z,3.30
2019-03-26T01:40:20.885Z,3.30
2019-03-26T01:43:09.088Z,3.30
2019-03-26T01:45:57.224Z,3.30
2019-03-26T01:48:45.077Z,3.30
2019-03-26T01:51:33.205Z,3.40
2019-03-26T01:54:21.740Z,3.40
2019-03-26T01:57:09.801Z,3.40
2019-03-26T01:59:57.652Z,3.40
2019-03-26T02:02:45.965Z,3.40
2019-03-26T02:05:34.198Z,3.40
2019-03-26T02:08:22.552Z,3.30
2019-03-26T02:11:10.608Z,3.30
2019-03-26T02:13:58.772Z,3.20
2019-03-26T02:16:46.996Z,3.20
2019-03-26T02:19:35.452Z,3.20
2019-03-26T02:22:24.033Z,3.20
2019-03-26T02:25:12.527Z,3.20
2019-03-26T02:28:01.100Z,3.20
2019-03-26T02:30:49.730Z,3.20
2019-03-26T02:33:38.041Z,3.20
2019-03-26T02:36:26.581Z,3.20
2019-03-26T02:39:14.413Z,3.20
2019-03-26T02:42:02.934Z,3.20
2019-03-26T02:44:51.264Z,3.20
2019-03-26T02:47:39.720Z,3.10
2019-03-26T02:50:27.897Z,3.20
2019-03-26T02:53:16.306Z,3.30
2019-03-26T02:56:04.258Z,3.30
2019-03-26T02:58:52.521Z,3.30
2019-03-26T03:01:41.042Z,3.30
2019-03-26T03:04:29.184Z,3.40
2019-03-26T03:07:17.277Z,3.30
2019-03-26T03:10:06.289Z,3.30
2019-03-26T03:12:54.555Z,3.20
2019-03-26T03:15:42.799Z,3.20
2019-03-26T03:18:31.250Z,3.20
2019-03-26T03:21:19.105Z,3.20
2019-03-26T03:24:07.077Z,3.20
2019-03-26T03:26:54.873Z,3.20
2019-03-26T03:29:43.185Z,3.20
2019-03-26T03:32:31.546Z,3.20
2019-03-26T03:35:20.106Z,3.20
2019-03-26T03:38:08.158Z,3.20
2019-03-26T03:40:56.517Z,3.20
2019-03-26T03:43:44.625Z,3.20
2019-03-26T03:46:32.905Z,3.30
2019-03-26T03:49:24.819Z,3.30
2019-03-26T03:52:15.245Z,3.30
2019-03-26T03:55:03.550Z,3.30
2019-03-26T03:57:54.646Z,3.30
2019-03-26T04:00:42.787Z,3.30
2019-03-26T04:03:31.522Z,3.30
2019-03-26T04:06:19.713Z,3.30
2019-03-26T04:09:08.400Z,3.30
2019-03-26T04:11:56.772Z,3.30
2019-03-26T04:14:45.151Z,3.40
2019-03-26T04:17:33.079Z,3.40
2019-03-26T04:20:21.066Z,3.40
2019-03-26T04:23:09.334Z,3.40
2019-03-26T04:25:57.936Z,3.30
2019-03-26T04:28:46.429Z,3.20
2019-03-26T04:31:34.952Z,3.20
2019-03-26T04:34:23.608Z,3.20
2019-03-26T04:37:11.999Z,3.20
2019-03-26T04:40:00.614Z,3.20
2019-03-26T04:42:49.263Z,3.20
2019-03-26T04:45:38.063Z,3.10
2019-03-26T04:48:27.589Z,3.10
2019-03-26T04:51:15.808Z,3.10
2019-03-26T04:54:04.046Z,3.10
2019-03-26T04:56:52.395Z,3.10
2019-03-26T04:59:41.095Z,3.10
2019-03-26T05:02:29.291Z,3.20
2019-03-26T05:05:17.711Z,3.20
2019-03-26T05:08:05.560Z,3.20
2019-03-26T05:10:54.318Z,3.10
2019-03-26T05:13:42.570Z,3.10
2019-03-26T05:16:30.801Z,3.10
2019-03-26T05:19:18.687Z,3.10
2019-03-26T05:22:07.277Z,3.10
2019-03-26T05:24:55.648Z,3.10
2019-03-26T05:27:45.641Z,3.10
2019-03-26T05:30:34.184Z,3.10
2019-03-26T05:33:22.305Z,3.10
2019-03-26T05:36:10.249Z,3.10
2019-03-26T05:38:58.278Z,3.10
2019-03-26T05:41:46.841Z,3.10
2019-03-26T05:44:34.704Z,3.20
2019-03-26T05:47:23.177Z,3.20
2019-03-26T05:50:12.477Z,3.20
2019-03-26T05:53:00.881Z,3.20
2019-03-26T05:55:49.295Z,3.30
2019-03-26T05:58:37.488Z,3.30
2019-03-26T06:01:25.764Z,3.20
2019-03-26T06:04:14.324Z,3.30
2019-03-26T06:07:05.134Z,3.30
2019-03-26T06:09:52.395Z,3.30
2019-03-26T06:12:40.400Z,3.40
2019-03-26T06:15:29.081Z,3.30
2019-03-26T06:18:17.439Z,3.40
2019-03-26T06:21:05.840Z,3.40
2019-03-26T06:23:54.197Z,3.40
2019-03-26T06:26:42.660Z,3.40
2019-03-26T06:29:31.361Z,3.40
2019-03-26T06:32:19.365Z,3.50
2019-03-26T06:35:09.029Z,3.50
2019-03-26T06:37:56.997Z,3.60
2019-03-26T06:40:44.931Z,3.70
2019-03-26T06:43:33.081Z,3.70
2019-03-26T06:46:21.297Z,3.80
2019-03-26T06:49:09.308Z,3.80
2019-03-26T06:51:57.660Z,3.90
2019-03-26T06:54:46.458Z,3.90
2019-03-26T06:57:35.900Z,3.90
2019-03-26T07:00:33.800Z,4.00
2019-03-26T07:03:22.809Z,4.00
2019-03-26T07:06:10.797Z,4.00
2019-03-26T07:08:59.016Z,4.10
2019-03-26T07:11:47.241Z,4.10
2019-03-26T07:14:35.939Z,4.10
2019-03-26T07:17:24.276Z,4.30
2019-03-26T07:20:12.625Z,4.30
2019-03-26T07:23:01.274Z,4.30
2019-03-26T07:25:49.288Z,4.40
2019-03-26T07:28:37.521Z,4.40
2019-03-26T07:31:25.733Z,4.50
2019-03-26T07:34:13.932Z,4.50
2019-03-26T07:37:02.310Z,4.60
2019-03-26T07:39:50.419Z,4.60
2019-03-26T07:42:38.576Z,4.70
2019-03-26T07:45:27.066Z,4.80
2019-03-26T07:48:15.048Z,4.90
2019-03-26T07:51:03.415Z,5.00
2019-03-26T07:53:51.781Z,5.00
2019-03-26T07:56:40.262Z,5.10
2019-03-26T07:59:28.733Z,5.00
2019-03-26T08:02:16.825Z,5.00
2019-03-26T08:05:06.049Z,5.00
2019-03-26T08:07:58.511Z,5.10
2019-03-26T08:10:44.334Z,5.20
2019-03-26T08:13:32.724Z,5.30
2019-03-26T08:16:20.880Z,5.40
2019-03-26T08:19:09.115Z,5.40
2019-03-26T08:21:57.256Z,5.40
2019-03-26T08:24:45.370Z,5.40
2019-03-26T08:27:33.240Z,5.40
2019-03-26T08:30:21.962Z,5.40
2019-03-26T08:33:10.326Z,5.40
2019-03-26T08:35:58.885Z,5.30
2019-03-26T08:38:47.161Z,5.30
2019-03-26T08:41:35.837Z,5.30
2019-03-26T08:44:24.120Z,5.40
2019-03-26T08:47:12.006Z,5.30
2019-03-26T08:50:00.410Z,5.30
2019-03-26T08:52:48.845Z,5.30
2019-03-26T08:55:37.007Z,5.30
2019-03-26T08:58:26.088Z,5.40
2019-03-26T09:01:14.337Z,5.40
2019-03-26T09:04:02.859Z,5.50
2019-03-26T09:06:51.171Z,5.60
2019-03-26T09:09:39.932Z,5.60
2019-03-26T09:12:28.245Z,5.50
2019-03-26T09:15:16.922Z,5.40
2019-03-26T09:18:05.292Z,5.40
2019-03-26T09:20:53.434Z,5.40
2019-03-26T09:23:41.731Z,5.40
2019-03-26T09:26:30.017Z,5.30
2019-03-26T09:29:18.119Z,5.40
2019-03-26T09:32:06.322Z,5.40
2019-03-26T09:34:54.652Z,5.20
2019-03-26T09:37:42.602Z,5.00
2019-03-26T09:40:30.745Z,4.60
2019-03-26T09:43:18.961Z,4.50
2019-03-26T09:46:07.158Z,4.50
2019-03-26T09:48:55.368Z,4.50
2019-03-26T09:51:43.595Z,4.60
2019-03-26T09:54:31.736Z,4.70
2019-03-26T09:57:19.820Z,4.60
2019-03-26T10:00:09.703Z,4.50
2019-03-26T10:02:58.015Z,4.50
2019-03-26T10:05:46.198Z,4.60
2019-03-26T10:08:34.350Z,4.60
2019-03-26T10:11:22.862Z,4.50
2019-03-26T10:14:10.941Z,4.30
2019-03-26T10:16:59.233Z,4.30
2019-03-26T10:19:47.175Z,4.30
2019-03-26T10:22:35.769Z,4.50
2019-03-26T10:25:24.048Z,4.70
2019-03-26T10:28:12.248Z,5.00
2019-03-26T10:31:00.578Z,5.00
2019-03-26T10:33:49.123Z,5.00
2019-03-26T10:36:37.287Z,5.00
2019-03-26T10:39:25.141Z,5.20
2019-03-26T10:42:13.845Z,5.40
2019-03-26T10:45:02.022Z,5.60
2019-03-26T10:47:50.144Z,5.70
2019-03-26T10:50:38.474Z,5.60
2019-03-26T10:53:26.589Z,5.80
2019-03-26T10:56:14.674Z,5.70
2019-03-26T10:59:04.253Z,5.70
2019-03-26T11:01:52.497Z,5.70
2019-03-26T11:04:40.710Z,6.00
2019-03-26T11:07:29.064Z,6.30
2019-03-26T11:10:17.493Z,6.60
2019-03-26T11:13:05.752Z,6.90
2019-03-26T11:15:54.503Z,7.00
2019-03-26T11:18:43.086Z,7.00
2019-03-26T11:21:31.313Z,6.80
2019-03-26T11:24:19.569Z,6.70
2019-03-26T11:27:08.019Z,6.40
2019-03-26T11:29:56.460Z,6.30
2019-03-26T11:32:44.848Z,6.40
2019-03-26T11:35:33.007Z,6.30
2019-03-26T11:38:21.073Z,6.20
2019-03-26T11:41:09.096Z,6.20
2019-03-26T11:43:57.516Z,6.10
2019-03-26T11:46:45.663Z,6.10
2019-03-26T11:49:34.074Z,6.30
2019-03-26T11:52:22.597Z,6.40
2019-03-26T11:55:11.528Z,6.40
2019-03-26T11:58:00.059Z,6.50
2019-03-26T12:00:48.448Z,6.60
2019-03-26T12:03:37.033Z,6.40
2019-03-26T12:06:25.049Z,6.40
2019-03-26T12:09:13.129Z,6.30
2019-03-26T12:12:00.991Z,6.40
2019-03-26T12:14:49.300Z,6.40
2019-03-26T12:17:37.434Z,6.50
2019-03-26T12:20:25.846Z,6.70
2019-03-26T12:23:14.153Z,6.90
2019-03-26T12:26:03.027Z,6.90
2019-03-26T12:28:51.245Z,6.90
2019-03-26T12:31:39.756Z,6.90
2019-03-26T12:34:28.112Z,6.90
2019-03-26T12:37:15.983Z,6.90
2019-03-26T12:40:05.262Z,7.00
2019-03-26T12:42:53.365Z,7.00
2019-03-26T12:45:41.318Z,6.90
2019-03-26T12:48:29.365Z,7.00
2019-03-26T12:51:17.424Z,7.10
2019-03-26T12:54:05.446Z,7.20
2019-03-26T12:56:53.946Z,7.20
2019-03-26T12:59:42.045Z,7.10
2019-03-26T13:02:30.293Z,7.10
2019-03-26T13:05:18.623Z,7.00
2019-03-26T13:08:07.083Z,6.90
2019-03-26T13:10:55.331Z,6.80
2019-03-26T13:13:43.399Z,6.80
2019-03-26T13:16:31.705Z,6.80
2019-03-26T13:19:19.866Z,6.80
2019-03-26T13:22:07.998Z,6.80
2019-03-26T13:24:56.507Z,6.70
2019-03-26T13:27:44.785Z,6.70
2019-03-26T13:30:33.005Z,6.80
2019-03-26T13:33:21.247Z,6.90
2019-03-26T13:36:09.575Z,7.00
2019-03-26T13:38:57.944Z,7.20
2019-03-26T13:41:46.577Z,7.40
2019-03-26T13:44:34.877Z,7.60
2019-03-26T13:47:23.430Z,7.80
2019-03-26T13:50:13.472Z,7.80
2019-03-26T13:53:01.902Z,7.80
2019-03-26T13:55:50.221Z,7.70
2019-03-26T13:58:38.758Z,7.70
2019-03-26T14:01:27.088Z,7.70
2019-03-26T14:04:15.664Z,7.70
2019-03-26T14:07:04.469Z,7.60
2019-03-26T14:09:53.016Z,7.60
2019-03-26T14:12:41.031Z,7.60
2019-03-26T14:15:29.322Z,7.60
2019-03-26T14:18:17.204Z,7.60
2019-03-26T14:21:06.178Z,7.60
2019-03-26T14:23:54.331Z,7.60
2019-03-26T14:26:42.312Z,7.60
2019-03-26T14:29:30.429Z,7.50
2019-03-26T14:32:19.266Z,7.40
2019-03-26T14:35:07.455Z,7.30
2019-03-26T14:37:55.569Z,7.30
2019-03-26T14:40:54.008Z,7.50
2019-03-26T14:43:34.210Z,7.60
2019-03-26T14:46:22.610Z,7.70
2019-03-26T14:49:10.969Z,7.70
2019-03-26T14:51:59.073Z,7.60
2019-03-26T14:54:47.401Z,7.50
2019-03-26T14:57:35.661Z,7.60
2019-03-26T15:00:24.238Z,7.60
2019-03-26T15:03:12.521Z,7.70
2019-03-26T15:06:04.341Z,7.90
2019-03-26T15:08:50.841Z,7.90
2019-03-26T15:11:39.725Z,7.90
2019-03-26T15:14:27.787Z,7.80
2019-03-26T15:17:16.398Z,7.70
2019-03-26T15:20:05.038Z,7.80
2019-03-26T15:22:53.332Z,7.70
2019-03-26T15:25:41.789Z,7.70
2019-03-26T15:28:30.417Z,7.50
2019-03-26T15:31:18.822Z,7.50
2019-03-26T15:34:07.120Z,7.60
2019-03-26T15:36:55.708Z,7.70
2019-03-26T15:39:43.723Z,7.80
2019-03-26T15:42:31.912Z,7.70
2019-03-26T15:45:20.286Z,7.60
2019-03-26T15:48:08.732Z,7.50
2019-03-26T15:50:57.374Z,7.40
2019-03-26T15:53:46.046Z,7.40
2019-03-26T15:56:34.458Z,7.50
2019-03-26T15:59:22.560Z,7.40
2019-03-26T16:02:11.009Z,7.40
2019-03-26T16:04:59.766Z,7.30
2019-03-26T16:07:47.935Z,7.20
2019-03-26T16:10:36.441Z,7.20
2019-03-26T16:13:24.492Z,7.20
2019-03-26T16:16:13.078Z,7.10
2019-03-26T16:19:01.445Z,7.10
2019-03-26T16:21:49.604Z,7.10
2019-03-26T16:24:37.708Z,7.20
2019-03-26T16:27:25.728Z,7.30
2019-03-26T16:30:15.467Z,7.40
2019-03-26T16:33:03.932Z,7.30
2019-03-26T16:35:52.575Z,7.40
2019-03-26T16:38:40.877Z,7.50
2019-03-26T16:41:28.991Z,7.70
2019-03-26T16:44:16.925Z,7.80
2019-03-26T16:47:05.325Z,7.90
2019-03-26T16:49:53.170Z,8.00
2019-03-26T16:52:41.947Z,8.10
2019-03-26T16:55:30.266Z,8.00
2019-03-26T16:58:18.701Z,8.00
2019-03-26T17:01:07.266Z,7.90
2019-03-26T17:03:55.533Z,7.90
2019-03-26T17:06:44.185Z,7.90
2019-03-26T17:09:32.562Z,7.80
2019-03-26T17:12:20.494Z,7.70
2019-03-26T17:15:08.893Z,7.50
2019-03-26T17:17:57.022Z,7.50
2019-03-26T17:20:45.214Z,7.50
2019-03-26T17:23:33.274Z,7.50
2019-03-26T17:26:21.406Z,7.40
2019-03-26T17:29:10.019Z,7.40
2019-03-26T17:31:58.512Z,7.30
2019-03-26T17:34:47.224Z,7.20
2019-03-26T17:37:35.710Z,7.10
2019-03-26T17:40:24.004Z,7.10
2019-03-26T17:43:12.534Z,6.90
2019-03-26T17:46:00.565Z,6.80
2019-03-26T17:48:48.684Z,6.70
2019-03-26T17:51:37.096Z,6.70
2019-03-26T17:54:26.017Z,6.60
2019-03-26T17:57:14.169Z,6.50
2019-03-26T18:00:02.071Z,6.50
2019-03-26T18:02:50.532Z,6.40
2019-03-26T18:05:38.438Z,6.30
2019-03-26T18:08:26.826Z,6.20
2019-03-26T18:11:14.963Z,6.00
2019-03-26T18:14:03.664Z,5.70
2019-03-26T18:16:51.646Z,5.40
2019-03-26T18:19:40.654Z,5.30
2019-03-26T18:22:29.169Z,5.30
2019-03-26T18:25:17.384Z,5.30
2019-03-26T18:28:05.736Z,5.20
2019-03-26T18:30:53.817Z,5.20
2019-03-26T18:33:41.959Z,5.10
2019-03-26T18:36:30.305Z,5.00
2019-03-26T18:39:18.469Z,4.90
2019-03-26T18:42:07.043Z,4.80
2019-03-26T18:44:55.231Z,4.80
2019-03-26T18:47:43.672Z,4.80
2019-03-26T18:50:32.320Z,4.80
2019-03-26T18:53:20.475Z,4.70
2019-03-26T18:56:08.483Z,4.60
2019-03-26T18:58:56.485Z,4.40
2019-03-26T19:01:44.657Z,4.30
2019-03-26T19:04:33.146Z,4.20
2019-03-26T19:07:21.262Z,4.20
2019-03-26T19:10:31.407Z,4.20
2019-03-26T19:13:20.292Z,4.20
2019-03-26T19:16:09.541Z,4.10
2019-03-26T19:18:58.158Z,4.10
2019-03-26T19:21:46.652Z,4.10
2019-03-26T19:24:34.880Z,4.00
2019-03-26T19:27:23.367Z,3.80
2019-03-26T19:30:12.737Z,3.80
2019-03-26T19:33:00.865Z,3.80
2019-03-26T19:35:49.107Z,3.70
2019-03-26T19:38:37.204Z,3.70
2019-03-26T19:41:25.612Z,3.70
2019-03-26T19:44:13.728Z,3.70
2019-03-26T19:47:01.973Z,3.70
2019-03-26T19:49:50.144Z,3.70
2019-03-26T19:52:38.672Z,3.60
2019-03-26T19:55:27.515Z,3.60
2019-03-26T19:58:16.915Z,3.60
2019-03-26T20:01:04.909Z,3.60
2019-03-26T20:03:53.071Z,3.60
2019-03-26T20:06:41.425Z,3.50
2019-03-26T20:09:29.533Z,3.50
2019-03-26T20:12:17.737Z,3.40
2019-03-26T20:15:06.538Z,3.40
2019-03-26T20:17:54.689Z,3.40
2019-03-26T20:20:43.177Z,3.30
2019-03-26T20:23:31.199Z,3.30
2019-03-26T20:26:19.446Z,3.20
2019-03-26T20:29:07.416Z,3.10
2019-03-26T20:31:55.489Z,3.10
2019-03-26T20:34:43.724Z,3.00
2019-03-26T20:37:32.194Z,3.00
2019-03-26T20:40:20.448Z,3.00
2019-03-26T20:43:09.014Z,3.00
2019-03-26T20:45:57.389Z,3.00
2019-03-26T20:48:45.669Z,3.00
2019-03-26T20:51:34.131Z,3.10
2019-03-26T20:54:22.448Z,3.20
2019-03-26T20:57:11.510Z,3.30
2019-03-26T20:59:59.814Z,3.30
2019-03-26T21:02:48.482Z,3.40
2019-03-26T21:05:36.505Z,3.50
2019-03-26T21:08:24.539Z,3.50
2019-03-26T21:11:12.536Z,3.60
2019-03-26T21:14:00.638Z,3.70
2019-03-26T21:16:48.826Z,3.70
2019-03-26T21:19:37.094Z,3.70
2019-03-26T21:22:25.455Z,3.70
2019-03-26T21:25:13.681Z,3.80
2019-03-26T21:28:01.619Z,3.80
2019-03-26T21:30:49.655Z,3.90
2019-03-26T21:33:37.906Z,3.90
2019-03-26T21:36:27.430Z,3.90
2019-03-26T21:39:16.172Z,3.90
2019-03-26T21:42:04.706Z,4.00
2019-03-26T21:44:53.009Z,4.00
2019-03-26T21:47:41.416Z,4.00
2019-03-26T21:50:29.810Z,4.00
2019-03-26T21:53:18.804Z,4.10
2019-03-26T21:56:07.729Z,4.00
2019-03-26T21:58:55.709Z,4.00
2019-03-26T22:01:43.642Z,4.10
2019-03-26T22:04:31.596Z,4.10
2019-03-26T22:07:19.872Z,4.10
2019-03-26T22:10:08.374Z,4.10
2019-03-26T22:12:56.972Z,4.00
2019-03-26T22:15:45.005Z,3.90
2019-03-26T22:18:33.112Z,3.90
2019-03-26T22:21:21.026Z,4.00
2019-03-26T22:24:09.318Z,3.90
2019-03-26T22:26:57.877Z,3.90
2019-03-26T22:29:45.772Z,3.90
2019-03-26T22:32:34.006Z,3.90
2019-03-26T22:35:22.224Z,3.90
2019-03-26T22:38:10.556Z,4.00
2019-03-26T22:40:58.965Z,4.00
2019-03-26T22:43:47.254Z,4.00
2019-03-26T22:46:35.827Z,4.10
2019-03-26T22:49:24.219Z,4.10
2019-03-26T22:52:12.874Z,4.10
2019-03-26T22:55:01.424Z,4.20
2019-03-26T22:57:49.368Z,4.20
2019-03-26T23:00:38.555Z,4.20
2019-03-26T23:03:26.744Z,4.20
2019-03-26T23:06:14.966Z,4.30
2019-03-26T23:09:04.232Z,4.30
2019-03-26T23:11:52.800Z,4.20
2019-03-26T23:14:45.276Z,4.20
2019-03-26T23:17:31.473Z,4.20
2019-03-26T23:20:19.770Z,4.20
2019-03-26T23:23:07.954Z,4.20
2019-03-26T23:25:56.687Z,4.10
2019-03-26T23:28:46.007Z,4.10
2019-03-26T23:31:34.318Z,4.00
2019-03-26T23:34:22.466Z,4.00
2019-03-26T23:37:10.516Z,3.90
2019-03-26T23:39:59.119Z,3.90
2019-03-26T23:42:47.620Z,3.80
2019-03-26T23:45:35.540Z,3.70
2019-03-26T23:48:23.703Z,3.70
2019-03-26T23:51:12.241Z,3.70
2019-03-26T23:54:00.612Z,3.80
2019-03-26T23:56:49.839Z,3.80
2019-03-26T23:59:37.877Z,3.80
